createdAt,value
2018-09-17T00:00:12.732Z,15.29
2018-09-17T00:03:18.111Z,15.24
2018-09-17T00:06:23.485Z,15.24
2018-09-17T00:09:28.902Z,15.22
2018-09-17T00:12:34.250Z,15.18
2018-09-17T00:15:39.630Z,15.14
2018-09-17T00:18:45.070Z,15.01
2018-09-17T00:21:50.425Z,15.01
2018-09-17T00:24:56.175Z,15.01
2018-09-17T00:28:01.565Z,14.96
2018-09-17T00:31:07.317Z,14.96
2018-09-17T00:34:12.720Z,14.96
2018-09-17T00:37:18.075Z,14.88
2018-09-17T00:40:23.441Z,14.90
2018-09-17T00:43:28.801Z,14.87
2018-09-17T00:46:34.174Z,14.80
2018-09-17T00:49:39.946Z,14.70
2018-09-17T00:52:45.478Z,14.69
2018-09-17T00:55:50.845Z,14.67
2018-09-17T00:58:56.278Z,14.51
2018-09-17T01:02:01.647Z,14.39
2018-09-17T01:05:07.928Z,14.47
2018-09-17T01:08:13.289Z,14.43
2018-09-17T01:11:19.037Z,14.45
2018-09-17T01:14:24.431Z,14.43
2018-09-17T01:17:29.773Z,14.42
2018-09-17T01:20:35.149Z,14.42
2018-09-17T01:23:40.504Z,14.37
2018-09-17T01:26:46.449Z,14.36
2018-09-17T01:29:51.905Z,14.30
2018-09-17T01:32:57.252Z,14.33
2018-09-17T01:36:02.632Z,14.26
2018-09-17T01:39:10.577Z,14.30
2018-09-17T01:42:15.972Z,14.30
2018-09-17T01:45:21.461Z,14.28
2018-09-17T01:48:26.918Z,14.28
2018-09-17T01:51:32.290Z,14.26
2018-09-17T01:54:37.686Z,14.21
2018-09-17T01:57:43.078Z,14.19
2018-09-17T02:00:48.832Z,14.22
2018-09-17T02:03:54.185Z,14.21
2018-09-17T02:06:59.566Z,14.21
2018-09-17T02:10:05.305Z,14.23
2018-09-17T02:13:11.145Z,14.21
2018-09-17T02:16:16.704Z,14.17
2018-09-17T02:19:22.146Z,14.09
2018-09-17T02:22:27.521Z,14.10
2018-09-17T02:25:32.906Z,14.05
2018-09-17T02:28:38.354Z,14.03
2018-09-17T02:31:43.757Z,13.98
2018-09-17T02:34:49.613Z,13.97
2018-09-17T02:37:55.047Z,13.98
2018-09-17T02:41:00.425Z,13.76
2018-09-17T02:44:05.801Z,13.80
2018-09-17T02:47:11.163Z,13.76
2018-09-17T02:50:16.638Z,13.80
2018-09-17T02:53:22.042Z,13.82
2018-09-17T02:56:27.597Z,13.80
2018-09-17T02:59:33.087Z,13.72
2018-09-17T03:02:38.743Z,13.47
2018-09-17T03:05:44.134Z,13.49
2018-09-17T03:08:49.612Z,13.50
2018-09-17T03:11:55.052Z,13.43
2018-09-17T03:15:11.201Z,13.50
2018-09-17T03:18:17.865Z,13.54
2018-09-17T03:21:23.418Z,13.55
2018-09-17T03:24:28.783Z,13.53
2018-09-17T03:27:34.439Z,13.52
2018-09-17T03:30:40.035Z,13.48
2018-09-17T03:33:45.454Z,13.48
2018-09-17T03:36:51.059Z,13.47
2018-09-17T03:39:58.228Z,13.49
2018-09-17T03:43:03.833Z,13.48
2018-09-17T03:46:09.224Z,13.38
2018-09-17T03:49:14.869Z,13.37
2018-09-17T03:52:20.250Z,13.37
2018-09-17T03:55:25.606Z,13.41
2018-09-17T03:58:31.069Z,13.43
2018-09-17T04:01:36.450Z,13.47
2018-09-17T04:04:41.797Z,13.43
2018-09-17T04:07:47.182Z,13.40
2018-09-17T04:10:52.558Z,13.41
2018-09-17T04:13:58.419Z,13.36
2018-09-17T04:17:03.794Z,13.20
2018-09-17T04:20:09.186Z,13.10
2018-09-17T04:23:14.562Z,13.19
2018-09-17T04:26:19.930Z,13.24
2018-09-17T04:29:25.347Z,13.12
2018-09-17T04:32:30.753Z,13.04
2018-09-17T04:35:36.111Z,12.87
2018-09-17T04:38:41.579Z,12.91
2018-09-17T04:41:46.954Z,12.93
2018-09-17T04:44:52.315Z,12.95
2018-09-17T04:47:57.731Z,13.02
2018-09-17T04:51:03.120Z,12.82
2018-09-17T04:54:08.853Z,12.82
2018-09-17T04:57:14.391Z,12.88
2018-09-17T05:00:19.898Z,12.91
2018-09-17T05:03:25.266Z,13.01
2018-09-17T05:06:30.613Z,12.84
2018-09-17T05:09:36.470Z,12.87
2018-09-17T05:12:41.860Z,12.85
2018-09-17T05:15:47.216Z,12.87
2018-09-17T05:18:52.618Z,12.93
2018-09-17T05:21:58.138Z,13.00
2018-09-17T05:25:03.573Z,13.09
2018-09-17T05:28:09.152Z,13.07
2018-09-17T05:31:14.558Z,13.14
2018-09-17T05:34:19.957Z,13.04
2018-09-17T05:37:25.339Z,13.14
2018-09-17T05:40:30.929Z,13.14
2018-09-17T05:43:36.293Z,13.18
2018-09-17T05:46:41.642Z,13.09
2018-09-17T05:49:47.706Z,13.16
2018-09-17T05:52:53.079Z,13.25
2018-09-17T05:55:58.466Z,13.23
2018-09-17T05:59:03.977Z,13.34
2018-09-17T06:02:09.661Z,13.32
2018-09-17T06:05:15.965Z,13.41
2018-09-17T06:08:21.438Z,13.45
2018-09-17T06:11:26.801Z,13.57
2018-09-17T06:14:32.292Z,13.65
2018-09-17T06:17:38.295Z,13.75
2018-09-17T06:20:43.823Z,13.88
2018-09-17T06:23:49.185Z,13.97
2018-09-17T06:26:54.559Z,14.07
2018-09-17T06:30:00.315Z,14.14
2018-09-17T06:33:06.154Z,14.22
2018-09-17T06:36:11.808Z,14.28
2018-09-17T06:39:17.846Z,14.36
2018-09-17T06:42:23.332Z,14.48
2018-09-17T06:45:28.802Z,14.60
2018-09-17T06:48:34.205Z,14.68
2018-09-17T06:51:39.565Z,14.75
2018-09-17T06:54:44.938Z,14.86
2018-09-17T06:57:50.354Z,14.99
2018-09-17T07:00:55.730Z,15.04
2018-09-17T07:04:01.133Z,15.09
2018-09-17T07:07:06.886Z,15.21
2018-09-17T07:10:12.345Z,15.31
2018-09-17T07:13:17.706Z,15.42
2018-09-17T07:16:23.112Z,15.55
2018-09-17T07:19:28.890Z,15.68
2018-09-17T07:22:34.253Z,15.84
2018-09-17T07:25:39.634Z,15.99
2018-09-17T07:28:45.643Z,16.07
2018-09-17T07:31:51.025Z,16.14
2018-09-17T07:34:56.401Z,16.21
2018-09-17T07:38:01.787Z,16.21
2018-09-17T07:41:07.266Z,16.28
2018-09-17T07:44:12.646Z,16.45
2018-09-17T07:47:18.030Z,16.62
2018-09-17T07:50:23.396Z,16.71
2018-09-17T07:53:28.746Z,16.88
2018-09-17T07:56:34.127Z,17.05
2018-09-17T07:59:39.494Z,17.22
2018-09-17T08:02:44.850Z,17.49
2018-09-17T08:05:50.418Z,17.67
2018-09-17T08:08:55.818Z,17.77
2018-09-17T08:12:01.530Z,17.89
2018-09-17T08:15:07.900Z,18.18
2018-09-17T08:18:13.339Z,18.57
2018-09-17T08:21:18.809Z,19.05
2018-09-17T08:24:24.217Z,19.52
2018-09-17T08:27:29.974Z,19.83
2018-09-17T08:30:35.408Z,20.19
2018-09-17T08:33:40.884Z,20.54
2018-09-17T08:36:47.031Z,20.84
2018-09-17T08:39:52.406Z,20.98
2018-09-17T08:42:57.798Z,20.96
2018-09-17T08:46:03.326Z,20.84
2018-09-17T08:49:08.935Z,20.82
2018-09-17T08:52:14.451Z,20.72
2018-09-17T08:55:25.156Z,20.70
2018-09-17T08:58:39.581Z,20.64
2018-09-17T09:01:50.087Z,20.63
2018-09-17T09:04:56.245Z,20.71
2018-09-17T09:08:01.773Z,20.75
2018-09-17T09:11:12.366Z,20.81
2018-09-17T09:14:33.057Z,20.87
2018-09-17T09:17:38.442Z,20.93
2018-09-17T09:20:43.820Z,20.97
2018-09-17T09:23:49.182Z,21.01
2018-09-17T09:26:54.545Z,21.11
2018-09-17T09:29:59.931Z,21.14
2018-09-17T09:33:05.370Z,21.21
2018-09-17T09:36:10.743Z,21.25
2018-09-17T09:39:16.193Z,21.27
2018-09-17T09:42:21.769Z,21.36
2018-09-17T09:45:27.298Z,21.47
2018-09-17T09:48:32.669Z,21.58
2018-09-17T09:51:38.041Z,21.67
2018-09-17T09:54:43.399Z,21.73
2018-09-17T09:57:48.802Z,21.77
2018-09-17T10:00:59.401Z,21.85
2018-09-17T10:04:10.277Z,21.87
2018-09-17T10:07:15.674Z,21.92
2018-09-17T10:10:26.415Z,22.05
2018-09-17T10:13:36.973Z,22.15
2018-09-17T10:16:46.472Z,22.31
2018-09-17T10:19:52.854Z,22.37
2018-09-17T10:22:58.857Z,22.43
2018-09-17T10:26:04.199Z,22.54
2018-09-17T10:29:09.608Z,22.67
2018-09-17T10:32:15.658Z,22.78
2018-09-17T10:35:21.041Z,22.88
2018-09-17T10:38:26.417Z,23.04
2018-09-17T10:41:31.761Z,23.36
2018-09-17T10:44:37.146Z,23.69
2018-09-17T10:47:42.535Z,24.03
2018-09-17T10:50:48.000Z,24.40
2018-09-17T10:53:53.393Z,24.60
2018-09-17T10:56:58.747Z,24.79
2018-09-17T11:00:04.354Z,24.92
2018-09-17T11:03:09.725Z,24.87
2018-09-17T11:06:15.081Z,24.93
2018-09-17T11:09:20.527Z,25.17
2018-09-17T11:12:26.273Z,25.43
2018-09-17T11:15:36.758Z,25.43
2018-09-17T11:18:42.179Z,25.41
2018-09-17T11:21:47.538Z,25.50
2018-09-17T11:24:53.067Z,25.62
2018-09-17T11:27:58.430Z,25.89
2018-09-17T11:31:03.896Z,26.09
2018-09-17T11:34:09.288Z,26.48
2018-09-17T11:37:14.650Z,26.80
2018-09-17T11:40:20.085Z,27.26
2018-09-17T11:43:25.612Z,27.81
2018-09-17T11:46:31.653Z,28.38
2018-09-17T11:49:37.155Z,28.79
2018-09-17T11:52:42.511Z,28.97
2018-09-17T11:55:47.893Z,29.39
2018-09-17T11:58:53.382Z,29.64
2018-09-17T12:02:05.449Z,30.45
2018-09-17T12:05:11.070Z,30.04
2018-09-17T12:08:18.321Z,30.62
2018-09-17T12:11:23.669Z,31.63
2018-09-17T12:14:29.277Z,32.35
2018-09-17T12:17:35.100Z,32.54
2018-09-17T12:20:40.573Z,32.71
2018-09-17T12:23:45.942Z,32.83
2018-09-17T12:26:52.106Z,32.90
2018-09-17T12:29:57.522Z,32.58
2018-09-17T12:33:03.106Z,32.53
2018-09-17T12:36:08.484Z,32.58
2018-09-17T12:39:13.937Z,32.57
2018-09-17T12:42:19.286Z,32.94
2018-09-17T12:45:25.692Z,32.79
2018-09-17T12:48:31.057Z,32.55
2018-09-17T12:51:36.438Z,31.85
2018-09-17T12:54:41.841Z,32.48
2018-09-17T12:57:47.264Z,32.98
2018-09-17T13:00:53.433Z,33.04
2018-09-17T13:03:58.834Z,33.01
2018-09-17T13:07:04.278Z,32.60
2018-09-17T13:10:10.450Z,32.95
2018-09-17T13:13:15.862Z,33.19
2018-09-17T13:16:21.262Z,32.76
2018-09-17T13:19:26.640Z,32.04
2018-09-17T13:22:32.009Z,31.25
2018-09-17T13:25:37.382Z,30.81
2018-09-17T13:28:42.763Z,30.61
2018-09-17T13:31:48.847Z,30.30
2018-09-17T13:34:54.445Z,29.86
2018-09-17T13:38:00.045Z,29.40
2018-09-17T13:41:05.440Z,29.20
2018-09-17T13:44:10.893Z,28.65
2018-09-17T13:47:16.430Z,28.64
2018-09-17T13:50:21.822Z,28.31
2018-09-17T13:53:27.267Z,27.98
2018-09-17T13:56:32.825Z,27.89
2018-09-17T13:59:38.285Z,27.84
2018-09-17T14:02:43.672Z,27.76
2018-09-17T14:05:49.049Z,27.51
2018-09-17T14:08:54.476Z,27.34
2018-09-17T14:11:59.871Z,27.31
2018-09-17T14:15:05.723Z,27.20
2018-09-17T14:18:12.858Z,27.05
2018-09-17T14:21:18.315Z,27.06
2018-09-17T14:24:23.865Z,26.96
2018-09-17T14:27:29.367Z,26.86
2018-09-17T14:30:34.961Z,26.80
2018-09-17T14:33:41.606Z,26.69
2018-09-17T14:36:46.994Z,26.59
2018-09-17T14:39:52.413Z,26.60
2018-09-17T14:42:58.006Z,26.56
2018-09-17T14:46:03.730Z,26.51
2018-09-17T14:49:09.367Z,26.43
2018-09-17T14:52:15.222Z,26.34
2018-09-17T14:55:20.838Z,26.27
2018-09-17T14:58:26.347Z,26.28
2018-09-17T15:01:31.934Z,26.21
2018-09-17T15:04:37.459Z,26.16
2018-09-17T15:07:43.074Z,26.03
2018-09-17T15:10:48.738Z,26.06
2018-09-17T15:13:54.487Z,26.01
2018-09-17T15:16:59.896Z,25.90
2018-09-17T15:20:05.313Z,25.88
2018-09-17T15:23:10.706Z,25.87
2018-09-17T15:26:16.248Z,25.88
2018-09-17T15:29:21.789Z,25.85
2018-09-17T15:32:27.278Z,25.82
2018-09-17T15:35:32.820Z,25.78
2018-09-17T15:38:38.218Z,25.78
2018-09-17T15:41:43.607Z,25.79
2018-09-17T15:44:48.970Z,25.72
2018-09-17T15:47:54.389Z,25.71
2018-09-17T15:50:59.857Z,25.69
2018-09-17T15:54:05.238Z,25.65
2018-09-17T15:57:10.628Z,25.61
2018-09-17T16:00:16.019Z,25.56
2018-09-17T16:03:22.386Z,25.45
2018-09-17T16:06:27.758Z,25.42
2018-09-17T16:09:33.201Z,25.40
2018-09-17T16:12:38.577Z,25.33
2018-09-17T16:15:44.050Z,25.20
2018-09-17T16:18:49.900Z,25.14
2018-09-17T16:21:55.274Z,25.03
2018-09-17T16:25:00.682Z,24.95
2018-09-17T16:28:06.218Z,24.97
2018-09-17T16:31:11.609Z,24.91
2018-09-17T16:34:17.062Z,24.86
2018-09-17T16:37:22.433Z,24.80
2018-09-17T16:40:27.829Z,24.73
2018-09-17T16:43:33.195Z,24.58
2018-09-17T16:46:38.594Z,24.50
2018-09-17T16:49:43.986Z,24.06
2018-09-17T16:52:49.381Z,24.01
2018-09-17T16:55:54.936Z,24.00
2018-09-17T16:59:00.425Z,23.91
2018-09-17T17:02:05.951Z,23.73
2018-09-17T17:05:11.664Z,23.49
2018-09-17T17:08:17.254Z,23.36
2018-09-17T17:11:22.791Z,23.19
2018-09-17T17:14:28.290Z,23.14
2018-09-17T17:17:33.682Z,23.07
2018-09-17T17:20:39.786Z,23.02
2018-09-17T17:23:45.373Z,22.69
2018-09-17T17:26:50.729Z,22.37
2018-09-17T17:29:56.789Z,22.42
2018-09-17T17:33:02.233Z,22.28
2018-09-17T17:36:08.038Z,22.33
2018-09-17T17:39:13.530Z,22.26
2018-09-17T17:42:19.998Z,22.06
2018-09-17T17:45:25.390Z,21.88
2018-09-17T17:48:30.911Z,21.87
2018-09-17T17:51:36.269Z,21.72
2018-09-17T17:54:41.707Z,21.72
2018-09-17T17:57:47.927Z,21.67
2018-09-17T18:00:53.536Z,21.46
2018-09-17T18:03:59.286Z,21.45
2018-09-17T18:07:05.046Z,21.42
2018-09-17T18:10:10.416Z,21.31
2018-09-17T18:13:16.431Z,21.27
2018-09-17T18:16:25.854Z,21.20
2018-09-17T18:19:31.333Z,20.93
2018-09-17T18:22:36.898Z,20.89
2018-09-17T18:25:42.294Z,20.87
2018-09-17T18:28:47.817Z,20.86
2018-09-17T18:31:53.386Z,20.84
2018-09-17T18:34:58.762Z,20.80
2018-09-17T18:38:04.149Z,20.70
2018-09-17T18:41:09.609Z,20.63
2018-09-17T18:44:15.214Z,20.54
2018-09-17T18:47:20.578Z,20.48
2018-09-17T18:50:26.127Z,20.41
2018-09-17T18:53:31.498Z,20.30
2018-09-17T18:56:36.901Z,20.19
2018-09-17T18:59:42.360Z,20.12
2018-09-17T19:02:47.772Z,20.05
2018-09-17T19:05:53.494Z,19.82
2018-09-17T19:08:59.040Z,19.64
2018-09-17T19:12:04.762Z,19.64
2018-09-17T19:15:16.364Z,19.62
2018-09-17T19:18:22.020Z,19.60
2018-09-17T19:21:32.851Z,19.54
2018-09-17T19:24:38.410Z,19.51
2018-09-17T19:27:49.151Z,19.45
2018-09-17T19:30:54.710Z,19.36
2018-09-17T19:34:00.092Z,19.31
2018-09-17T19:37:10.853Z,19.24
2018-09-17T19:40:17.775Z,19.23
2018-09-17T19:43:23.411Z,19.20
2018-09-17T19:46:28.847Z,19.19
2018-09-17T19:49:34.328Z,19.13
2018-09-17T19:52:39.890Z,19.09
2018-09-17T19:55:46.297Z,19.05
2018-09-17T19:58:57.177Z,18.96
2018-09-17T20:02:02.570Z,18.87
2018-09-17T20:05:13.606Z,18.78
2018-09-17T20:08:19.125Z,18.66
2018-09-17T20:11:24.745Z,18.56
2018-09-17T20:14:30.117Z,18.53
2018-09-17T20:17:35.830Z,18.26
2018-09-17T20:20:41.221Z,18.13
2018-09-17T20:23:46.606Z,18.15
2018-09-17T20:26:52.490Z,18.21
2018-09-17T20:29:58.048Z,18.21
2018-09-17T20:33:05.252Z,18.22
2018-09-17T20:36:15.657Z,18.17
2018-09-17T20:39:23.201Z,18.10
2018-09-17T20:42:28.574Z,18.08
2018-09-17T20:45:35.266Z,18.11
2018-09-17T20:48:52.260Z,18.05
2018-09-17T20:51:58.541Z,18.04
2018-09-17T20:55:03.925Z,17.98
2018-09-17T20:58:09.861Z,17.83
2018-09-17T21:01:15.417Z,17.79
2018-09-17T21:04:20.934Z,17.77
2018-09-17T21:07:26.653Z,17.72
2018-09-17T21:10:32.134Z,17.69
2018-09-17T21:13:37.518Z,17.60
2018-09-17T21:16:42.935Z,17.59
2018-09-17T21:19:48.386Z,17.52
2018-09-17T21:22:53.766Z,17.49
2018-09-17T21:25:59.133Z,17.44
2018-09-17T21:29:04.645Z,17.02
2018-09-17T21:32:10.033Z,17.05
2018-09-17T21:35:15.462Z,17.14
2018-09-17T21:38:21.108Z,17.19
2018-09-17T21:41:26.577Z,17.22
2018-09-17T21:44:31.959Z,17.19
2018-09-17T21:47:37.545Z,17.18
2018-09-17T21:50:42.998Z,17.14
2018-09-17T21:53:48.402Z,17.12
2018-09-17T21:56:53.761Z,17.08
2018-09-17T21:59:59.720Z,17.05
2018-09-17T22:03:05.647Z,16.99
2018-09-17T22:06:10.997Z,16.94
2018-09-17T22:09:16.834Z,16.91
2018-09-17T22:12:22.653Z,16.95
2018-09-17T22:15:28.353Z,16.93
2018-09-17T22:18:33.757Z,16.91
2018-09-17T22:21:39.113Z,16.86
2018-09-17T22:24:44.504Z,16.83
2018-09-17T22:27:49.905Z,16.73
2018-09-17T22:30:55.290Z,16.70
2018-09-17T22:34:00.695Z,16.68
2018-09-17T22:37:06.623Z,16.66
2018-09-17T22:40:12.150Z,16.67
2018-09-17T22:43:17.509Z,16.72
2018-09-17T22:46:22.969Z,16.74
2018-09-17T22:49:28.438Z,16.69
2018-09-17T22:52:33.834Z,16.63
2018-09-17T22:55:39.186Z,16.59
2018-09-17T22:58:45.305Z,16.57
2018-09-17T23:01:50.663Z,16.52
2018-09-17T23:04:56.034Z,16.51
2018-09-17T23:08:01.486Z,16.38
2018-09-17T23:11:07.385Z,16.39
2018-09-17T23:14:12.741Z,16.40
2018-09-17T23:17:18.199Z,16.43
2018-09-17T23:20:23.564Z,16.42
2018-09-17T23:23:29.351Z,16.40
2018-09-17T23:26:34.713Z,16.40
2018-09-17T23:29:40.194Z,16.39
2018-09-17T23:32:45.676Z,16.37
2018-09-17T23:35:51.149Z,16.30
2018-09-17T23:38:56.702Z,16.12
2018-09-17T23:42:02.062Z,16.10
2018-09-17T23:45:07.590Z,16.03
2018-09-17T23:48:13.173Z,15.98
2018-09-17T23:51:18.882Z,15.85
2018-09-17T23:54:24.282Z,15.86
2018-09-17T23:57:29.774Z,15.91
